Red Dog, AK

8:42 AM AKDT on March 29, 2017 (GMT -0800)
Red Dog Mine | | Change Station

Elev 974 ft 68.03 °N, 162.90 °W | Updated 45 minutes ago

Scattered Clouds
Scattered Clouds
-8 °F
Feels Like -21 °F
N
6
Wind Variable Wind from NNE

Today
High -- | Low -- °F
--% Chance of Precip.
Yesterday
High -- | Low -- °F
Precip. -- in
Pressure 29.78 in
Visibility 15.0 miles
Clouds Scattered Clouds 4000 ft
Windchill -21 °F
Dew Point -11 °F
Humidity 84%
Rainfall 0.00 in
Snow Depth Not available.
8:10 AM 9:43 PM
Waxing Crescent, 3% visible
SPECI PADG 291557Z 03005KT 15SM SCT040 M22/M24 A2978
Pressure 29.78 in
Visibility 15.0 miles
Clouds Scattered Clouds 4000 ft
Windchill -21 °F
Dew Point -11 °F
Humidity 84%
Rainfall 0.00 in
Snow Depth Not available.
8:10 AM 9:43 PM
Waxing Crescent, 3% visible
SPECI PADG 291557Z 03005KT 15SM SCT040 M22/M24 A2978

Get Severe Weather Alerts

Thanks for signing up!

Be on the lookout for a verification email in your inbox.

You'll start receiving the daily forecast at 8 AM.

×

10-Day Weather Forecast

Almanac

Astronomy

Mar. 29, 2017 Rise Set
Actual Time
Civil Twilight
Nautical Twilight
Astronomical Twilight
Moon
Length of Visible Light
Length of Day
Tomorrow will be .
, % of the Moon is Illuminated

Today's Extremes

State Highs State Lows

Community

WunderPhotos

Upload Photos

1,962,540 photos uploaded!

WunderBlog® & News

Nearby

Air Quality

  Air Quality AQ Index Pollutant
Not available.

Snow Depth

Station Depth Elevation

Earthquake Activity

City Distance Mag. Time & Date
Minimum magnitude displayed is 2.5.

Earthquake Activity

City Distance Mag. Time & Date
Minimum magnitude displayed is 2.5.

Coastal Water Temperatures

Place Temperature

Stations

Nearby Weather Stations

Station Location Temp. Windchill Dew Point Humidity Wind Precip. Elev Updated Type
                   

Watches & Warnings

There are currently no watches in effect.